Time,TemperatureF,DewpointF,PressureIn,WindDirection,WindDirectionDegrees,WindSpeedMPH,WindSpeedGustMPH,Humidity,HourlyPrecipIn,Conditions,Clouds,dailyrainin,SoftwareType,DateUTC
2013-01-19 00:00:00,34.0,18.0,30.38,NNW,331,0.0,3.0,53,0.00,,,0.00,weatherlink.com 1.10,2013-01-19 07:00:00,
2013-01-19 00:15:00,33.9,19.0,30.38,NNW,332,0.0,0.0,54,0.00,,,0.00,weatherlink.com 1.10,2013-01-19 07:15:00,
2013-01-19 00:30:00,32.8,19.0,30.38,NNW,331,0.0,0.0,57,0.00,,,0.00,weatherlink.com 1.10,2013-01-19 07:30:00,
2013-01-19 00:45:00,33.4,19.0,30.38,NNW,332,0.0,0.0,56,0.00,,,0.00,weatherlink.com 1.10,2013-01-19 07:45:00,
2013-01-19 01:00:00,33.8,19.0,30.38,NNW,331,0.0,0.0,54,0.00,,,0.00,weatherlink.com 1.10,2013-01-19 08:00:00,
2013-01-19 01:15:00,33.6,18.0,30.38,NNW,331,0.0,0.0,52,0.00,,,0.00,weatherlink.com 1.10,2013-01-19 08:15:00,
2013-01-19 01:30:00,32.5,18.0,30.38,NNW,331,0.0,0.0,55,0.00,,,0.00,weatherlink.com 1.10,2013-01-19 08:30:00,
2013-01-19 01:45:00,30.0,17.0,30.39,NNW,332,0.0,0.0,58,0.00,,,0.00,weatherlink.com 1.10,2013-01-19 08:45:00,
2013-01-19 02:00:00,29.9,17.0,30.39,NNW,332,0.0,1.0,60,0.00,,,0.00,weatherlink.com 1.10,2013-01-19 09:00:00,
2013-01-19 02:15:00,28.8,17.0,30.39,NNW,332,0.0,1.0,62,0.00,,,0.00,weatherlink.com 1.10,2013-01-19 09:15:00,
2013-01-19 02:30:00,28.3,17.0,30.39,NNW,347,0.0,0.0,63,0.00,,,0.00,weatherlink.com 1.10,2013-01-19 09:30:00,
2013-01-19 02:45:00,29.9,18.0,30.39,NNE,25,0.0,2.0,61,0.00,,,0.00,weatherlink.com 1.10,2013-01-19 09:45:00,
2013-01-19 03:00:00,30.0,18.0,30.39,NNE,25,0.0,0.0,61,0.00,,,0.00,weatherlink.com 1.10,2013-01-19 10:00:00,
2013-01-19 03:15:00,30.0,18.0,30.39,East,96,0.0,0.0,60,0.00,,,0.00,weatherlink.com 1.10,2013-01-19 10:15:00,
2013-01-19 03:30:00,30.2,17.0,30.38,NNE,12,0.0,0.0,59,0.00,,,0.00,weatherlink.com 1.10,2013-01-19 10:30:00,
2013-01-19 03:45:00,29.4,17.0,30.38,NNE,22,0.0,0.0,60,0.00,,,0.00,weatherlink.com 1.10,2013-01-19 10:45:00,
2013-01-19 04:00:00,28.3,17.0,30.39,NE,56,0.0,0.0,62,0.00,,,0.00,weatherlink.com 1.10,2013-01-19 11:00:00,
2013-01-19 06:01:00,27.1,16.0,30.40,North,350,0.0,0.0,64,0.00,,,0.00,weatherlink.com 1.10,2013-01-19 13:01:00,
2013-01-19 06:16:00,26.3,16.0,30.41,North,349,0.0,0.0,64,0.00,,,0.00,weatherlink.com 1.10,2013-01-19 13:16:00,
2013-01-19 06:31:00,25.0,15.0,30.42,NNW,331,0.0,0.0,67,0.00,,,0.00,weatherlink.com 1.10,2013-01-19 13:31:00,
2013-01-19 06:46:00,24.4,16.0,30.42,North,360,1.0,3.0,69,0.00,,,0.00,weatherlink.com 1.10,2013-01-19 13:46:00,
2013-01-19 07:01:00,24.4,15.0,30.42,North,355,0.0,2.0,68,0.00,,,0.00,weatherlink.com 1.10,2013-01-19 14:01:00,
2013-01-19 07:16:00,23.5,15.0,30.43,NW,318,0.0,1.0,70,0.00,,,0.00,weatherlink.com 1.10,2013-01-19 14:16:00,
2013-01-19 07:46:00,22.8,15.0,30.44,NW,318,0.0,1.0,72,0.00,,,0.00,weatherlink.com 1.10,2013-01-19 14:46:00,
2013-01-19 08:01:00,23.8,16.0,30.46,NW,318,0.0,0.0,71,0.00,,,0.00,weatherlink.com 1.10,2013-01-19 15:01:00,
2013-01-19 08:16:00,26.7,17.0,30.47,SW,231,0.0,0.0,67,0.00,,,0.00,weatherlink.com 1.10,2013-01-19 15:16:00,
2013-01-19 08:31:00,28.5,16.0,30.46,North,356,0.0,1.0,60,0.00,,,0.00,weatherlink.com 1.10,2013-01-19 15:31:00,
2013-01-19 08:46:00,30.7,17.0,30.47,WSW,238,0.0,1.0,57,0.00,,,0.00,weatherlink.com 1.10,2013-01-19 15:46:00,
2013-01-19 09:01:00,31.2,16.0,30.48,NNE,22,0.0,4.0,54,0.00,,,0.00,weatherlink.com 1.10,2013-01-19 16:01:00,
2013-01-19 09:16:00,30.8,17.0,30.48,North,8,0.0,3.0,56,0.00,,,0.00,weatherlink.com 1.10,2013-01-19 16:16:00,
2013-01-19 09:31:00,32.2,17.0,30.49,NE,44,1.0,3.0,54,0.00,,,0.00,weatherlink.com 1.10,2013-01-19 16:31:00,
2013-01-19 09:46:00,33.5,17.0,30.49,NNW,345,3.0,4.0,51,0.00,,,0.00,weatherlink.com 1.10,2013-01-19 16:46:00,
2013-01-19 10:16:00,36.3,17.0,30.49,ENE,65,1.0,4.0,46,0.00,,,0.00,weatherlink.com 1.10,2013-01-19 17:16:00,
2013-01-19 10:31:00,37.3,17.0,30.49,NNE,23,1.0,7.0,44,0.00,,,0.00,weatherlink.com 1.10,2013-01-19 17:31:00,
2013-01-19 10:46:00,38.4,17.0,30.48,East,97,2.0,3.0,42,0.00,,,0.00,weatherlink.com 1.10,2013-01-19 17:46:00,
2013-01-19 11:01:00,39.3,17.0,30.48,WNW,298,1.0,3.0,40,0.00,,,0.00,weatherlink.com 1.10,2013-01-19 18:01:00,
2013-01-19 11:31:00,41.9,18.0,30.46,North,351,1.0,3.0,38,0.00,,,0.00,weatherlink.com 1.10,2013-01-19 18:31:00,
2013-01-19 11:46:00,43.1,18.0,30.45,North,353,0.0,4.0,36,0.00,,,0.00,weatherlink.com 1.10,2013-01-19 18:46:00,
2013-01-19 12:32:00,47.1,18.0,30.41,ENE,59,0.0,2.0,32,0.00,,,0.00,weatherlink.com 1.10,2013-01-19 19:32:00,
2013-01-19 12:47:00,47.9,18.0,30.40,NNW,344,0.0,3.0,31,0.00,,,0.00,weatherlink.com 1.10,2013-01-19 19:47:00,
2013-01-19 13:02:00,48.5,19.0,30.39,NNW,343,0.0,4.0,31,0.00,,,0.00,weatherlink.com 1.10,2013-01-19 20:02:00,
2013-01-19 13:17:00,49.3,19.0,30.39,NE,49,1.0,4.0,30,0.00,,,0.00,weatherlink.com 1.10,2013-01-19 20:17:00,
2013-01-19 13:32:00,49.1,19.0,30.38,East,84,0.0,3.0,30,0.00,,,0.00,weatherlink.com 1.10,2013-01-19 20:32:00,
2013-01-19 14:02:00,50.7,19.0,30.37,North,351,1.0,4.0,29,0.00,,,0.00,weatherlink.com 1.10,2013-01-19 21:02:00,
2013-01-19 14:32:00,52.6,18.0,30.36,NNW,343,2.0,4.0,26,0.00,,,0.00,weatherlink.com 1.10,2013-01-19 21:32:00,
2013-01-19 15:02:00,53.7,17.0,30.35,North,352,1.0,5.0,23,0.00,,,0.00,weatherlink.com 1.10,2013-01-19 22:02:00,
2013-01-19 15:17:00,53.6,15.0,30.34,North,356,0.0,5.0,22,0.00,,,0.00,weatherlink.com 1.10,2013-01-19 22:17:00,
2013-01-19 15:47:00,55.1,15.0,30.34,NW,326,1.0,5.0,20,0.00,,,0.00,weatherlink.com 1.10,2013-01-19 22:47:00,
2013-01-19 16:17:00,53.8,16.0,30.34,NNE,23,4.0,4.0,22,0.00,,,0.00,weatherlink.com 1.10,2013-01-19 23:17:00,
2013-01-19 16:47:00,52.6,16.0,30.34,NNE,19,0.0,2.0,23,0.00,,,0.00,weatherlink.com 1.10,2013-01-19 23:47:00,
2013-01-19 17:17:00,49.6,16.0,30.35,NNW,327,3.0,5.0,26,0.00,,,0.00,weatherlink.com 1.10,2013-01-20 00:17:00,
2013-01-19 17:32:00,48.7,16.0,30.35,North,355,0.0,6.0,27,0.00,,,0.00,weatherlink.com 1.10,2013-01-20 00:32:00,
2013-01-19 17:47:00,47.2,17.0,30.36,North,352,0.0,1.0,30,0.00,,,0.00,weatherlink.com 1.10,2013-01-20 00:47:00,
2013-01-19 18:02:00,45.2,17.0,30.36,North,6,0.0,3.0,33,0.00,,,0.00,weatherlink.com 1.10,2013-01-20 01:02:00,
2013-01-19 18:32:00,43.8,18.0,30.38,North,360,0.0,4.0,35,0.00,,,0.00,weatherlink.com 1.10,2013-01-20 01:32:00,
2013-01-19 19:02:00,41.6,18.0,30.39,North,360,0.0,0.0,39,0.00,,,0.00,weatherlink.com 1.10,2013-01-20 02:02:00,
2013-01-19 19:17:00,40.2,18.0,30.39,North,360,0.0,0.0,41,0.00,,,0.00,weatherlink.com 1.10,2013-01-20 02:17:00,
2013-01-19 19:32:00,39.5,19.0,30.39,North,360,0.0,1.0,44,0.00,,,0.00,weatherlink.com 1.10,2013-01-20 02:32:00,
2013-01-19 19:47:00,38.6,18.0,30.40,North,360,0.0,1.0,44,0.00,,,0.00,weatherlink.com 1.10,2013-01-20 02:47:00,
2013-01-19 20:02:00,38.0,18.0,30.40,North,351,0.0,0.0,45,0.00,,,0.00,weatherlink.com 1.10,2013-01-20 03:02:00,
2013-01-19 20:17:00,37.4,18.0,30.40,North,352,0.0,0.0,45,0.00,,,0.00,weatherlink.com 1.10,2013-01-20 03:17:00,
2013-01-19 20:32:00,36.5,17.0,30.41,North,356,0.0,0.0,45,0.00,,,0.00,weatherlink.com 1.10,2013-01-20 03:32:00,
2013-01-19 21:02:00,35.7,18.0,30.41,North,1,0.0,0.0,49,0.00,,,0.00,weatherlink.com 1.10,2013-01-20 04:02:00,
2013-01-19 21:32:00,36.4,19.0,30.41,North,1,0.0,0.0,49,0.00,,,0.00,weatherlink.com 1.10,2013-01-20 04:32:00,
2013-01-19 21:48:00,38.3,22.0,30.42,North,1,0.0,0.0,52,0.00,,,0.00,weatherlink.com 1.10,2013-01-20 04:48:00,
2013-01-19 22:02:00,37.6,20.0,30.42,North,1,0.0,0.0,50,0.00,,,0.00,weatherlink.com 1.10,2013-01-20 05:02:00,
2013-01-19 22:17:00,36.4,19.0,30.42,North,1,0.0,0.0,50,0.00,,,0.00,weatherlink.com 1.10,2013-01-20 05:17:00,
2013-01-19 22:32:00,34.5,18.0,30.43,North,1,0.0,0.0,51,0.00,,,0.00,weatherlink.com 1.10,2013-01-20 05:32:00,
2013-01-19 22:48:00,34.4,18.0,30.43,North,1,0.0,0.0,51,0.00,,,0.00,weatherlink.com 1.10,2013-01-20 05:48:00,
2013-01-19 23:02:00,35.3,18.0,30.43,North,1,0.0,0.0,50,0.00,,,0.00,weatherlink.com 1.10,2013-01-20 06:02:00,
2013-01-19 23:17:00,34.0,20.0,30.43,North,1,0.0,0.0,56,0.00,,,0.00,weatherlink.com 1.10,2013-01-20 06:17:00,
2013-01-19 23:32:00,33.1,17.0,30.43,North,1,0.0,0.0,53,0.00,,,0.00,weatherlink.com 1.10,2013-01-20 06:32:00,
2013-01-19 23:47:00,33.3,19.0,30.43,North,1,0.0,0.0,55,0.00,,,0.00,weatherlink.com 1.10,2013-01-20 06:47:00,